Time;durP1;ratioP1;P1;durP2;ratioP2;P2;SDS_P1;SDS_P2;PMS_P1;PMS_P2;Temp;Humidity;BMP_temperature;BMP_pressure;BME280_temperature;BME280_humidity;BME280_pressure;Samples;Min_cycle;Max_cycle;Signal;HPM_P1;HPM_P2
2022/07/18 07:23:33;;;;;;;2.9;2.6;;;;;;;37.75;24.22363;945.2031;;;;
2022/07/18 07:26:01;;;;;;;3.2;2.1;;;;;;;38.48;23.70313;945.2353;;;;
2022/07/18 07:28:29;;;;;;;3.9;2.2;;;;;;;37.49;23.74902;945.2525;;;;
2022/07/18 07:31:01;;;;;;;3.7;2.7;;;;;;;35.45;25.39453;945.2397;;;;
2022/07/18 07:33:26;;;;;;;2.8;2.3;;;;;;;36.11;26.26563;945.1791;;;;
2022/07/18 07:35:56;;;;;;;2.5;2.2;;;;;;;36.06;26.25;945.155;;;;
2022/07/18 07:38:27;;;;;;;2.4;1.9;;;;;;;36.4;26.85059;945.1672;;;;
2022/07/18 07:40:53;;;;;;;2.6;2.1;;;;;;;37.41;24.82422;945.1633;;;;
2022/07/18 07:43:21;;;;;;;2.7;2.1;;;;;;;37.23;25.72363;945.1418;;;;
2022/07/18 07:45:47;;;;;;;2.7;2.1;;;;;;;36.32;26.36133;945.1583;;;;
2022/07/18 07:48:12;;;;;;;2.2;2;;;;;;;36.6;25.08301;945.2181;;;;
2022/07/18 07:50:43;;;;;;;2.7;2.2;;;;;;;36.28;26.08105;945.1474;;;;
2022/07/18 07:53:08;;;;;;;2.3;2.1;;;;;;;36.99;26.65527;945.1722;;;;
2022/07/18 07:55:39;;;;;;;3.3;2.2;;;;;;;37.82;24.74902;945.1586;;;;
2022/07/18 07:58:04;;;;;;;4.8;2.3;;;;;;;37.66;24.4375;945.1442;;;;
2022/07/18 08:00:29;;;;;;;2.3;2.1;;;;;;;36.5;25.9248;945.1626;;;;
2022/07/18 08:02:58;;;;;;;3.4;2.2;;;;;;;37.43;27.21484;945.1151;;;;
2022/07/18 08:05:29;;;;;;;4.6;2.3;;;;;;;37.89;25.89453;945.1465;;;;
2022/07/18 08:07:54;;;;;;;3.5;2.4;;;;;;;36.61;27.55273;945.1133;;;;
2022/07/18 08:10:25;;;;;;;2.4;2.2;;;;;;;37.11;28.45605;945.1624;;;;
2022/07/18 08:12:56;;;;;;;2.3;2.1;;;;;;;36.85;27.38574;945.1755;;;;
2022/07/18 08:15:21;;;;;;;17.5;3.6;;;;;;;37.88;26.60938;945.173;;;;
2022/07/18 08:17:52;;;;;;;3.6;2.5;;;;;;;35.33;29.50391;945.2017;;;;
2022/07/18 08:20:23;;;;;;;2.7;2;;;;;;;35.72;28.22461;945.218;;;;
2022/07/18 08:22:48;;;;;;;3.5;2.2;;;;;;;37.01;25.62598;945.2054;;;;
2022/07/18 08:25:20;;;;;;;4.2;2;;;;;;;35.22;30.41504;945.2096;;;;
2022/07/18 08:27:45;;;;;;;4;2.3;;;;;;;34.04;31.25098;945.1437;;;;
2022/07/18 08:30:16;;;;;;;2.4;2.2;;;;;;;34.83;29.37598;945.1854;;;;
2022/07/18 08:32:48;;;;;;;2.3;2.1;;;;;;;36.65;27.56738;945.1578;;;;
2022/07/18 08:35:21;;;;;;;2;1.9;;;;;;;37.02;25.19043;945.0999;;;;
2022/07/18 08:37:49;;;;;;;2.2;1.8;;;;;;;38.29;25.33301;945.1213;;;;
2022/07/18 08:40:15;;;;;;;3.8;2.1;;;;;;;39.51;24.53613;945.157;;;;
2022/07/18 08:42:43;;;;;;;4.6;2.1;;;;;;;37.44;27.37305;945.1514;;;;
2022/07/18 08:45:08;;;;;;;2;1.8;;;;;;;35.63;28.61816;945.1306;;;;
2022/07/18 08:47:42;;;;;;;3.8;2.1;;;;;;;36.37;26.41309;945.1121;;;;
2022/07/18 08:50:16;;;;;;;2.2;2;;;;;;;36.25;28.14941;945.0959;;;;
2022/07/18 08:52:43;;;;;;;5.2;2;;;;;;;36.58;26.02539;945.101;;;;
2022/07/18 08:55:11;;;;;;;7.9;2.8;;;;;;;37.97;24.28418;945.0723;;;;
2022/07/18 08:57:39;;;;;;;20.8;4.4;;;;;;;36.27;26.55273;945.0781;;;;
2022/07/18 09:00:04;;;;;;;2.3;2.1;;;;;;;37.2;25.54004;944.9981;;;;
2022/07/18 09:02:32;;;;;;;3.4;1.9;;;;;;;35.78;28.63867;945.0043;;;;
2022/07/18 09:05:02;;;;;;;4.1;1.8;;;;;;;36.16;26.23242;945.005;;;;
2022/07/18 09:07:34;;;;;;;2.2;2;;;;;;;36.5;25.62207;944.9855;;;;
2022/07/18 09:10:18;;;;;;;2.1;1.9;;;;;;;37.05;23.76172;944.9901;;;;
2022/07/18 09:12:43;;;;;;;2;1.8;;;;;;;37.51;23.8584;944.9808;;;;
2022/07/18 09:15:10;;;;;;;2.6;1.9;;;;;;;36.96;24.5332;944.9501;;;;
2022/07/18 09:17:34;;;;;;;2.4;1.6;;;;;;;36.65;26.00586;944.9681;;;;
2022/07/18 09:20:00;;;;;;;2;1.5;;;;;;;36.15;24.41699;944.9832;;;;
2022/07/18 09:22:25;;;;;;;1.6;1.5;;;;;;;35.06;26.31348;945.0041;;;;
2022/07/18 09:24:50;;;;;;;4.1;2.1;;;;;;;32.65;29.46387;944.9599;;;;
2022/07/18 09:27:15;;;;;;;2.5;1.6;;;;;;;33.77;30.55859;944.9341;;;;
2022/07/18 09:29:40;;;;;;;2;1.7;;;;;;;35.1;26.81055;944.9512;;;;
2022/07/18 09:32:07;;;;;;;2.2;1.8;;;;;;;34.73;28.30859;944.9066;;;;
2022/07/18 09:34:32;;;;;;;1.8;1.7;;;;;;;35.53;26.14648;944.8831;;;;
2022/07/18 09:37:01;;;;;;;2.5;1.7;;;;;;;36.12;26.03613;944.9299;;;;
2022/07/18 09:39:26;;;;;;;1.7;1.6;;;;;;;35.9;26.64063;944.8482;;;;
2022/07/18 09:41:56;;;;;;;1.7;1.6;;;;;;;36.12;25.41895;944.8563;;;;
2022/07/18 09:44:22;;;;;;;2.8;1.5;;;;;;;36.13;25.55273;944.8472;;;;
2022/07/18 09:46:47;;;;;;;2.5;1.7;;;;;;;34.4;27.9502;944.8541;;;;
2022/07/18 09:49:12;;;;;;;9.1;2.1;;;;;;;33.89;28.54492;944.7781;;;;
2022/07/18 09:51:41;;;;;;;2.7;1.9;;;;;;;33.25;28.63672;944.8522;;;;
2022/07/18 09:54:06;;;;;;;2.2;1.7;;;;;;;33.92;27.7041;944.8503;;;;
2022/07/18 09:56:33;;;;;;;2;1.5;;;;;;;34.79;26.97363;944.8716;;;;
2022/07/18 09:59:44;;;;;;;1.6;1.5;;;;;;;35.14;26.89746;944.8618;;;;
2022/07/18 10:02:20;;;;;;;1.9;1.7;;;;;;;35.93;25.02148;944.8419;;;;
2022/07/18 10:04:21;;;;;;;1.7;1.4;;;;;;;35.68;26.49414;944.8428;;;;
2022/07/18 10:06:50;;;;;;;1.9;1.7;;;;;;;34.87;27.08594;944.8125;;;;
2022/07/18 10:09:15;;;;;;;1.6;1.5;;;;;;;34.86;27.71289;944.8519;;;;
2022/07/18 10:11:44;;;;;;;2;1.4;;;;;;;34.77;25.2959;944.7271;;;;
2022/07/18 10:14:09;;;;;;;1.9;1.5;;;;;;;33.78;26.39648;944.7922;;;;
2022/07/18 10:16:37;;;;;;;2.6;1.8;;;;;;;32.5;29.53711;944.7761;;;;
2022/07/18 10:19:04;;;;;;;3.2;1.8;;;;;;;32.36;28.83301;944.7901;;;;
2022/07/18 10:21:30;;;;;;;2.3;1.6;;;;;;;32.46;29.47559;944.7283;;;;
2022/07/18 10:23:59;;;;;;;2.2;1.4;;;;;;;33.03;26.62891;944.7794;;;;
2022/07/18 10:26:29;;;;;;;2.5;1.6;;;;;;;33.5;27.35352;944.7291;;;;
2022/07/18 10:28:54;;;;;;;2.6;1.5;;;;;;;33.86;26.75;944.7248;;;;
2022/07/18 10:31:21;;;;;;;1.7;1.4;;;;;;;34.17;25.85352;944.7317;;;;
2022/07/18 10:33:51;;;;;;;2.3;1.4;;;;;;;32.69;29.70605;944.6942;;;;
2022/07/18 10:36:16;;;;;;;1.6;1.5;;;;;;;32.59;30.73145;944.7179;;;;
2022/07/18 10:38:44;;;;;;;1.7;1.4;;;;;;;32.65;29.89551;944.6205;;;;
2022/07/18 10:41:09;;;;;;;3.5;1.5;;;;;;;32.19;29.69727;944.6019;;;;
2022/07/18 10:43:38;;;;;;;1.6;1.5;;;;;;;32.7;27.12598;944.652;;;;
2022/07/18 10:46:03;;;;;;;2.9;1.4;;;;;;;33.26;27.48438;944.645;;;;
2022/07/18 10:48:30;;;;;;;1.8;1.6;;;;;;;33.54;28.00586;944.5825;;;;
2022/07/18 10:50:55;;;;;;;3.1;1.4;;;;;;;33.48;26.67969;944.6155;;;;
2022/07/18 10:53:23;;;;;;;2.5;1.7;;;;;;;33.21;29.04395;944.634;;;;
2022/07/18 10:55:48;;;;;;;4;1.8;;;;;;;33.13;27.37988;944.5647;;;;
2022/07/18 10:58:15;;;;;;;2.7;1.5;;;;;;;33.27;27.47266;944.5872;;;;
2022/07/18 11:00:42;;;;;;;3.3;1.5;;;;;;;33.1;30.3457;944.5331;;;;
2022/07/18 11:03:05;;;;;;;2.3;1.5;;;;;;;33.37;27.52637;944.5278;;;;
2022/07/18 11:05:30;;;;;;;2.4;1.6;;;;;;;33.11;27.1748;944.5076;;;;
2022/07/18 11:07:55;;;;;;;2.3;1.5;;;;;;;32.91;28.81934;944.5117;;;;
2022/07/18 11:10:21;;;;;;;3.8;1.5;;;;;;;32.65;29.46289;944.4647;;;;
2022/07/18 11:12:49;;;;;;;4.2;2;;;;;;;32.04;29.61621;944.5189;;;;
2022/07/18 11:15:21;;;;;;;4.6;2.3;;;;;;;32;28.97852;944.5081;;;;
2022/07/18 11:17:50;;;;;;;1.6;1.4;;;;;;;32.2;29.77051;944.4714;;;;
2022/07/18 11:20:19;;;;;;;5.7;1.8;;;;;;;32.01;30.74023;944.4316;;;;
2022/07/18 11:22:46;;;;;;;1.6;1.5;;;;;;;32.04;29.23145;944.449;;;;
2022/07/18 11:25:13;;;;;;;2.6;1.6;;;;;;;31.55;30.25391;944.3953;;;;
2022/07/18 11:27:43;;;;;;;3.2;1.5;;;;;;;30.87;34.20117;944.4196;;;;
2022/07/18 11:30:08;;;;;;;1.9;1.5;;;;;;;30.65;34.99805;944.4849;;;;
2022/07/18 11:32:35;;;;;;;2.1;1.4;;;;;;;30.76;32.74707;944.4355;;;;
2022/07/18 11:35:05;;;;;;;2.1;1.6;;;;;;;31.11;30.61914;944.4761;;;;
2022/07/18 11:37:26;;;;;;;1.7;1.6;;;;;;;31.3;30.42871;944.3937;;;;
2022/07/18 11:39:56;;;;;;;3;1.8;;;;;;;31.5;30.66992;944.377;;;;
2022/07/18 11:42:21;;;;;;;2.8;1.8;;;;;;;31.61;31.67188;944.3697;;;;
2022/07/18 11:44:46;;;;;;;1.5;1.4;;;;;;;31.22;31.09375;944.3425;;;;
2022/07/18 11:47:12;;;;;;;2.4;1.6;;;;;;;30.79;32.43945;944.2386;;;;
2022/07/18 11:49:41;;;;;;;2.8;1.5;;;;;;;30.81;32.3916;944.2929;;;;
2022/07/18 11:52:05;;;;;;;2.1;1.6;;;;;;;30.58;33.45117;944.2928;;;;
2022/07/18 11:54:32;;;;;;;2.6;1.8;;;;;;;30.84;33.20703;944.321;;;;
2022/07/18 11:56:56;;;;;;;2;1.6;;;;;;;30.97;31.48242;944.2416;;;;
2022/07/18 11:59:24;;;;;;;1.7;1.6;;;;;;;31.06;31.69238;944.2478;;;;
2022/07/18 12:01:52;;;;;;;2.4;1.5;;;;;;;31.27;32.18555;944.2254;;;;
2022/07/18 12:04:16;;;;;;;2;1.6;;;;;;;31.32;30.90918;944.2114;;;;
2022/07/18 12:06:41;;;;;;;2.5;1.8;;;;;;;31.36;31.10254;944.2111;;;;
2022/07/18 12:09:32;;;;;;;1.7;1.6;;;;;;;31.38;31.59473;944.1473;;;;
2022/07/18 12:11:55;;;;;;;5.8;1.7;;;;;;;31.41;32.3877;944.173;;;;
2022/07/18 12:14:20;;;;;;;1.9;1.7;;;;;;;31.38;33.40234;944.1041;;;;
2022/07/18 12:16:46;;;;;;;1.6;1.5;;;;;;;31.52;31.84473;944.1136;;;;
2022/07/18 12:19:15;;;;;;;2.3;1.3;;;;;;;31.47;33.56445;944.0931;;;;
2022/07/18 12:21:41;;;;;;;2.2;1.5;;;;;;;31.26;32.66309;944.1555;;;;
2022/07/18 12:24:05;;;;;;;3.1;1.6;;;;;;;31.5;33.18359;944.182;;;;
2022/07/18 12:26:31;;;;;;;1.9;1.7;;;;;;;31.83;30.64355;944.0832;;;;
2022/07/18 12:28:56;;;;;;;3;1.9;;;;;;;31.22;32.25391;944.1121;;;;
2022/07/18 12:31:24;;;;;;;3;1.5;;;;;;;31.13;33.06055;944.0673;;;;
2022/07/18 12:33:49;;;;;;;2.6;1.6;;;;;;;31.34;31.18555;944.0975;;;;
2022/07/18 12:36:18;;;;;;;2;1.7;;;;;;;30.63;34.91211;944.0527;;;;
2022/07/18 12:38:48;;;;;;;2.1;1.7;;;;;;;30.55;34.96582;944.0352;;;;
2022/07/18 12:41:14;;;;;;;2.3;1.8;;;;;;;30.72;33.87988;944.0527;;;;
2022/07/18 12:43:39;;;;;;;3.3;1.6;;;;;;;30.91;32.2207;944.035;;;;
2022/07/18 12:46:06;;;;;;;1.5;1.4;;;;;;;31.24;31.69336;944.0037;;;;
2022/07/18 12:48:34;;;;;;;1.5;1.4;;;;;;;31.44;34.00488;944.0078;;;;
2022/07/18 12:51:00;;;;;;;3.2;1.5;;;;;;;31.31;33.73242;943.9894;;;;
2022/07/18 12:53:25;;;;;;;1.6;1.5;;;;;;;31.49;30.60938;943.908;;;;
2022/07/18 12:55:51;;;;;;;3.7;1.8;;;;;;;31.29;33.52734;943.9327;;;;
2022/07/18 12:58:16;;;;;;;3.5;1.8;;;;;;;31.25;32.1123;943.8958;;;;
2022/07/18 13:00:48;;;;;;;4.9;1.8;;;;;;;31.09;33.85938;943.8945;;;;
2022/07/18 13:03:14;;;;;;;2.8;1.5;;;;;;;31.1;32.61621;943.8978;;;;
2022/07/18 13:05:40;;;;;;;1.8;1.5;;;;;;;30.85;33.8291;943.8811;;;;
2022/07/18 13:08:06;;;;;;;2.7;1.6;;;;;;;30.79;32.25879;943.9263;;;;
2022/07/18 13:10:32;;;;;;;1.8;1.3;;;;;;;30.51;35.03516;943.8403;;;;
2022/07/18 13:12:58;;;;;;;1.8;1.7;;;;;;;30.57;32.80566;943.7972;;;;
2022/07/18 13:15:29;;;;;;;1.4;1.3;;;;;;;30.67;32.4541;943.8364;;;;
2022/07/18 13:17:54;;;;;;;1.4;1.3;;;;;;;30.66;31.97559;943.8442;;;;
2022/07/18 13:20:19;;;;;;;1.6;1.4;;;;;;;30.68;33.7334;943.8062;;;;
2022/07/18 13:22:47;;;;;;;2.4;1.8;;;;;;;30.78;33.8252;943.8667;;;;
2022/07/18 13:25:12;;;;;;;1.7;1.4;;;;;;;30.76;32.18555;943.7679;;;;
2022/07/18 13:27:39;;;;;;;2.1;1.3;;;;;;;30.83;31.95117;943.7805;;;;
2022/07/18 13:30:05;;;;;;;2.1;1.4;;;;;;;31.01;32.61035;943.7544;;;;
2022/07/18 13:32:32;;;;;;;2.3;1.6;;;;;;;30.73;33.77344;943.7195;;;;
2022/07/18 13:34:57;;;;;;;3.5;1.4;;;;;;;30.79;32.43848;943.725;;;;
2022/07/18 13:37:33;;;;;;;1.6;1.3;;;;;;;30.65;31.79492;943.7264;;;;
2022/07/18 13:39:57;;;;;;;2.1;1.6;;;;;;;30.69;31.14063;943.7562;;;;
2022/07/18 13:42:26;;;;;;;2;1.8;;;;;;;30.72;29.68555;943.681;;;;
2022/07/18 13:44:54;;;;;;;1.7;1.6;;;;;;;30.62;31.44629;943.6865;;;;
2022/07/18 13:47:19;;;;;;;1.8;1.4;;;;;;;30.73;31.23926;943.6922;;;;
2022/07/18 13:49:50;;;;;;;1.8;1.5;;;;;;;30.72;33.13867;943.6514;;;;
2022/07/18 13:52:24;;;;;;;1.7;1.4;;;;;;;30.68;31.86914;943.7019;;;;
2022/07/18 13:54:51;;;;;;;2.9;1.5;;;;;;;30.7;31.46387;943.6809;;;;
2022/07/18 13:57:14;;;;;;;1.7;1.6;;;;;;;30.56;32.49414;943.7188;;;;
2022/07/18 13:59:44;;;;;;;1.8;1.5;;;;;;;30.39;33.44922;943.6624;;;;
2022/07/18 14:02:08;;;;;;;1.5;1.4;;;;;;;30.41;31.88574;943.6227;;;;
2022/07/18 14:04:33;;;;;;;3.8;1.7;;;;;;;30.54;31.76367;943.7217;;;;
2022/07/18 14:07:02;;;;;;;1.9;1.5;;;;;;;30.5;31.76074;943.7047;;;;
2022/07/18 14:09:26;;;;;;;4;1.6;;;;;;;30.44;32.03125;943.6653;;;;
2022/07/18 14:11:53;;;;;;;2.2;1.4;;;;;;;30.35;33.09961;943.6909;;;;
2022/07/18 14:14:19;;;;;;;3.1;1.6;;;;;;;30.21;33.10059;943.6959;;;;
2022/07/18 14:16:55;;;;;;;2;1.3;;;;;;;30.07;31.38477;943.5804;;;;
2022/07/18 14:19:24;;;;;;;2.8;1.5;;;;;;;29.91;32.41211;943.562;;;;
2022/07/18 14:21:50;;;;;;;1.5;1.4;;;;;;;30.02;32.27637;943.6537;;;;
2022/07/18 14:24:19;;;;;;;2.2;1.5;;;;;;;30.07;32.35059;943.5701;;;;
2022/07/18 14:26:44;;;;;;;1.3;1.2;;;;;;;30.19;31.84668;943.5663;;;;
2022/07/18 14:29:13;;;;;;;1.7;1.4;;;;;;;29.95;33.85742;943.5905;;;;
2022/07/18 14:31:38;;;;;;;3.4;1.3;;;;;;;29.81;31.5459;943.6381;;;;
2022/07/18 14:34:07;;;;;;;1.5;1.3;;;;;;;30.02;31.10645;943.61;;;;
2022/07/18 14:36:32;;;;;;;1.5;1.4;;;;;;;29.88;32.21875;943.6064;;;;
2022/07/18 14:39:01;;;;;;;3.5;1.3;;;;;;;29.93;31.81641;943.6193;;;;
2022/07/18 14:41:27;;;;;;;2.8;1.3;;;;;;;30;32.27441;943.5924;;;;
2022/07/18 14:43:52;;;;;;;1.5;1.4;;;;;;;30.09;32.65137;943.595;;;;
2022/07/18 14:46:21;;;;;;;1.5;1.2;;;;;;;30.18;30.90332;943.5699;;;;
2022/07/18 14:48:48;;;;;;;1.5;1.1;;;;;;;30.35;30.6875;943.4824;;;;
2022/07/18 14:51:12;;;;;;;2.2;1.3;;;;;;;30.45;30.70605;943.5545;;;;
2022/07/18 14:53:37;;;;;;;1.6;1.4;;;;;;;30.39;31.1084;943.5488;;;;
2022/07/18 14:56:02;;;;;;;2.3;1.5;;;;;;;30.38;31.82324;943.562;;;;
2022/07/18 14:58:28;;;;;;;2.3;1.2;;;;;;;30.32;30.29199;943.5243;;;;
2022/07/18 15:00:53;;;;;;;1.3;1.2;;;;;;;30.33;29.20508;943.5237;;;;
2022/07/18 15:03:19;;;;;;;2.1;1.3;;;;;;;30.24;31.03809;943.5463;;;;
2022/07/18 15:05:46;;;;;;;1.9;1.5;;;;;;;30.39;29.24512;943.5089;;;;
2022/07/18 15:08:11;;;;;;;1.3;1;;;;;;;30.52;30.24512;943.5128;;;;
2022/07/18 15:10:37;;;;;;;1.7;1.3;;;;;;;30.47;29.69141;943.4824;;;;
2022/07/18 15:13:03;;;;;;;3.5;1.3;;;;;;;30.51;30.18457;943.5128;;;;
2022/07/18 15:15:36;;;;;;;1.2;1.1;;;;;;;30.46;30.24121;943.5079;;;;
2022/07/18 15:18:03;;;;;;;2.3;1.3;;;;;;;30.54;29.32617;943.5115;;;;
2022/07/18 15:20:29;;;;;;;1.6;1;;;;;;;30.52;30.15039;943.497;;;;
2022/07/18 15:22:53;;;;;;;1.8;1.2;;;;;;;30.52;30.83105;943.497;;;;
2022/07/18 15:25:23;;;;;;;0.9;0.9;;;;;;;30.48;30.20703;943.4702;;;;
2022/07/18 15:27:54;;;;;;;1.5;1.1;;;;;;;30.37;31.22656;943.4631;;;;
2022/07/18 15:30:24;;;;;;;1.7;1.2;;;;;;;30.41;29.62891;943.3775;;;;
2022/07/18 15:32:50;;;;;;;1.5;1.3;;;;;;;30.35;30.92676;943.4189;;;;
2022/07/18 15:35:19;;;;;;;1.3;1.2;;;;;;;30.42;30.50098;943.4462;;;;
2022/07/18 15:37:43;;;;;;;1.3;1.2;;;;;;;30.4;29.41309;943.4432;;;;
2022/07/18 15:40:14;;;;;;;2.3;1.3;;;;;;;30.5;29.66992;943.3677;;;;
2022/07/18 15:42:39;;;;;;;2;1.4;;;;;;;30.52;29.14648;943.4204;;;;
2022/07/18 15:45:04;;;;;;;1.6;1.1;;;;;;;30.37;29.0293;943.305;;;;
2022/07/18 15:47:30;;;;;;;1.6;1.2;;;;;;;30.27;29.66699;943.3448;;;;
2022/07/18 15:49:56;;;;;;;1.6;1.1;;;;;;;30.38;29.7334;943.3385;;;;
2022/07/18 15:52:21;;;;;;;1.3;1.2;;;;;;;30.3;28.88086;943.2932;;;;
2022/07/18 15:54:50;;;;;;;2.2;1;;;;;;;30.4;29.83105;943.2525;;;;
2022/07/18 15:57:14;;;;;;;2.3;1.2;;;;;;;30.36;30.09082;943.3173;;;;
2022/07/18 15:59:41;;;;;;;1.3;1.1;;;;;;;30.23;29.18652;943.2175;;;;
2022/07/18 16:02:08;;;;;;;2;1.2;;;;;;;30.14;29.79004;943.2117;;;;
2022/07/18 16:04:36;;;;;;;1.8;1.2;;;;;;;30.1;29.6084;943.1934;;;;
2022/07/18 16:07:01;;;;;;;1.7;1.2;;;;;;;30.05;30.04688;943.2004;;;;
2022/07/18 16:09:28;;;;;;;1.9;1.2;;;;;;;29.97;29.99316;943.1931;;;;
2022/07/18 16:11:53;;;;;;;1.2;1.1;;;;;;;29.99;30.19824;943.1794;;;;
2022/07/18 16:14:18;;;;;;;1.3;1.2;;;;;;;29.97;29.82715;943.1395;;;;
2022/07/18 16:16:48;;;;;;;1.2;1.1;;;;;;;29.95;29.83691;943.1384;;;;
2022/07/18 16:19:18;;;;;;;1.4;1.3;;;;;;;29.92;29.75195;943.1303;;;;
2022/07/18 16:21:43;;;;;;;1.2;1.1;;;;;;;29.92;30.02637;943.2256;;;;
2022/07/18 16:24:08;;;;;;;1.6;1.3;;;;;;;29.93;29.78809;943.1866;;;;
2022/07/18 16:26:35;;;;;;;1.2;1.1;;;;;;;29.95;29.51465;943.1722;;;;
2022/07/18 16:29:01;;;;;;;1.1;1;;;;;;;29.69;29.93848;943.1453;;;;
2022/07/18 16:31:26;;;;;;;3.3;1.1;;;;;;;29.61;29.23047;943.1428;;;;
2022/07/18 16:33:51;;;;;;;1.8;1.2;;;;;;;29.76;29.68164;943.0737;;;;
2022/07/18 16:36:19;;;;;;;1.6;1.2;;;;;;;29.8;29.95898;943.1099;;;;
2022/07/18 16:38:44;;;;;;;1.2;1.1;;;;;;;29.63;29.80469;943.0654;;;;
2022/07/18 16:41:10;;;;;;;2.5;1.3;;;;;;;29.74;29.44141;943.1141;;;;
2022/07/18 16:43:35;;;;;;;1.5;1.3;;;;;;;29.78;29.14551;943.0873;;;;
2022/07/18 16:46:01;;;;;;;1.2;1.1;;;;;;;29.74;29.19141;943.135;;;;
2022/07/18 16:48:26;;;;;;;3.1;1.2;;;;;;;29.71;29.04688;943.1267;;;;
2022/07/18 16:50:51;;;;;;;1.4;1.1;;;;;;;29.63;29.31543;943.1153;;;;
2022/07/18 16:53:21;;;;;;;1.2;1.1;;;;;;;29.68;29.08008;943.0986;;;;
2022/07/18 16:55:50;;;;;;;1.2;1.1;;;;;;;29.68;29.30664;943.0792;;;;
2022/07/18 16:58:15;;;;;;;1.2;1;;;;;;;29.62;29.74316;943.0242;;;;
2022/07/18 17:00:42;;;;;;;1.3;1.2;;;;;;;29.49;29.06836;943.0853;;;;
2022/07/18 17:03:08;;;;;;;3.1;1.2;;;;;;;29.3;29.63965;943.0717;;;;
2022/07/18 17:05:35;;;;;;;1.7;1.3;;;;;;;29.18;29.67871;943.0628;;;;
2022/07/18 17:08:00;;;;;;;1.2;1.1;;;;;;;29.14;29.61621;943.0938;;;;
2022/07/18 17:10:29;;;;;;;1.7;1.2;;;;;;;29.08;29.67285;943.0946;;;;
2022/07/18 17:12:54;;;;;;;1.2;1.1;;;;;;;29.01;29.8584;943.1046;;;;
2022/07/18 17:15:21;;;;;;;1.3;1;;;;;;;28.78;30.50977;943.1202;;;;
2022/07/18 17:17:49;;;;;;;1.5;1;;;;;;;28.64;30.80957;943.1511;;;;
2022/07/18 17:20:16;;;;;;;1.5;1;;;;;;;28.62;30.11816;943.1624;;;;
2022/07/18 17:22:47;;;;;;;1.6;1.1;;;;;;;28.54;30.01758;943.1635;;;;
2022/07/18 17:25:17;;;;;;;2.3;1.2;;;;;;;28.54;30.07715;943.1562;;;;
2022/07/18 17:27:46;;;;;;;1.6;1;;;;;;;28.55;30.31445;943.1573;;;;
2022/07/18 17:30:17;;;;;;;1;1;;;;;;;28.5;30.59766;943.1188;;;;
2022/07/18 17:32:42;;;;;;;1.4;1.2;;;;;;;28.47;31.07129;943.1311;;;;
2022/07/18 17:35:07;;;;;;;1.8;1.2;;;;;;;28.45;31.25977;943.0895;;;;
2022/07/18 17:37:32;;;;;;;23.2;19.6;;;;;;;28.2;32.15723;943.1394;;;;
2022/07/18 17:39:57;;;;;;;7.3;6.4;;;;;;;27.79;32.69922;943.155;;;;
2022/07/18 17:42:23;;;;;;;4.2;3.8;;;;;;;27.74;32.99121;943.0941;;;;
2022/07/18 17:44:48;;;;;;;4.1;3.4;;;;;;;27.73;32.55176;943.1149;;;;
2022/07/18 17:47:13;;;;;;;2.9;1.6;;;;;;;27.71;31.75488;943.0642;;;;
2022/07/18 17:49:43;;;;;;;1.7;1.5;;;;;;;27.76;32.33984;943.1085;;;;
2022/07/18 17:52:08;;;;;;;1.6;1.4;;;;;;;27.77;32.56641;943.0857;;;;
2022/07/18 17:54:37;;;;;;;2.5;1.2;;;;;;;27.79;32.27051;943.0286;;;;
2022/07/18 17:57:03;;;;;;;1.3;1.2;;;;;;;27.79;32.29492;943.0555;;;;
2022/07/18 17:59:33;;;;;;;1.8;1.4;;;;;;;27.76;32.53027;943.0659;;;;
2022/07/18 18:02:01;;;;;;;1.2;1.1;;;;;;;27.63;32.24805;943.0574;;;;
2022/07/18 18:04:27;;;;;;;1.7;1.2;;;;;;;27.67;32.2627;943.0066;;;;
2022/07/18 18:06:54;;;;;;;9.1;1.8;;;;;;;27.52;35.00488;943.0069;;;;
2022/07/18 18:09:19;;;;;;;2.5;1.4;;;;;;;27.26;35.60059;943.1222;;;;
2022/07/18 18:11:46;;;;;;;5;1.5;;;;;;;26.65;37.56641;943.0765;;;;
2022/07/18 18:14:11;;;;;;;3.8;1.8;;;;;;;26.37;38.18164;943.1047;;;;
2022/07/18 18:16:38;;;;;;;4.1;1.7;;;;;;;26.18;38.54395;943.1386;;;;
2022/07/18 18:19:05;;;;;;;4.2;1.7;;;;;;;25.98;39.34277;943.1917;;;;
2022/07/18 18:21:30;;;;;;;4.7;1.7;;;;;;;25.93;39.82324;943.1933;;;;
2022/07/18 18:23:58;;;;;;;4;1.6;;;;;;;25.8;40.88672;943.2001;;;;
2022/07/18 18:26:23;;;;;;;3.9;1.6;;;;;;;25.65;40.9082;943.1628;;;;
2022/07/18 18:28:50;;;;;;;2.6;1.7;;;;;;;25.51;41.9834;943.2236;;;;
2022/07/18 18:31:15;;;;;;;3.4;1.6;;;;;;;25.28;41.25293;943.2406;;;;
2022/07/18 18:33:41;;;;;;;1.7;1.5;;;;;;;25.14;41.94824;943.2492;;;;
2022/07/18 18:36:09;;;;;;;2.2;1.8;;;;;;;25.19;42.01172;943.1803;;;;
2022/07/18 18:38:35;;;;;;;2.3;1.7;;;;;;;25.14;42.91699;943.2399;;;;
2022/07/18 18:41:00;;;;;;;2.6;2.1;;;;;;;25.18;42.53027;943.2329;;;;
2022/07/18 18:43:29;;;;;;;4.7;2.3;;;;;;;25.2;42.63965;943.2703;;;;
2022/07/18 18:45:58;;;;;;;4.1;2.4;;;;;;;25.24;41.29688;943.3163;;;;
2022/07/18 18:48:23;;;;;;;7.9;2.1;;;;;;;25.25;41.86426;943.3387;;;;
2022/07/18 18:50:51;;;;;;;4.5;2.5;;;;;;;25.23;41.80371;943.3372;;;;
2022/07/18 18:53:16;;;;;;;3;1.9;;;;;;;25.23;41.69629;943.3606;;;;
2022/07/18 18:55:43;;;;;;;3.3;2;;;;;;;25.18;41.78711;943.3796;;;;
2022/07/18 18:58:09;;;;;;;5.2;2.2;;;;;;;25.15;42.06738;943.2935;;;;
2022/07/18 19:00:34;;;;;;;5.6;2;;;;;;;25.13;41.56934;943.3588;;;;
2022/07/18 19:03:05;;;;;;;3.9;1.9;;;;;;;25.06;42.75488;943.39;;;;
2022/07/18 19:05:29;;;;;;;1.8;1.6;;;;;;;25.02;42.49219;943.3787;;;;
2022/07/18 19:08:09;;;;;;;2.3;1.7;;;;;;;24.93;43.65039;943.3909;;;;
2022/07/18 19:10:37;;;;;;;3.3;1.8;;;;;;;24.91;42.95313;943.4399;;;;
2022/07/18 19:13:02;;;;;;;3.7;1.6;;;;;;;24.85;42.33398;943.4601;;;;
2022/07/18 19:15:29;;;;;;;1.8;1.5;;;;;;;24.78;42.66895;943.4615;;;;
2022/07/18 19:17:54;;;;;;;1.7;1.6;;;;;;;24.69;43.2627;943.4716;;;;
2022/07/18 19:20:25;;;;;;;2.9;1.8;;;;;;;24.69;42.44922;943.4713;;;;
2022/07/18 19:22:56;;;;;;;2;1.6;;;;;;;24.61;43.08984;943.4781;;;;
2022/07/18 19:25:28;;;;;;;1.8;1.5;;;;;;;24.54;43.55371;943.5003;;;;
2022/07/18 19:27:53;;;;;;;3.3;1.8;;;;;;;24.53;43.45898;943.4981;;;;
2022/07/18 19:30:21;;;;;;;3.2;1.6;;;;;;;24.38;44.1748;943.5311;;;;
2022/07/18 19:32:46;;;;;;;5.6;1.9;;;;;;;24.31;44.34473;943.5317;;;;
2022/07/18 19:35:20;;;;;;;2.1;1.4;;;;;;;24.26;44.32813;943.5471;;;;
2022/07/18 19:37:42;;;;;;;2.7;1.8;;;;;;;24.13;44.48047;943.5929;;;;
2022/07/18 19:40:18;;;;;;;3.9;1.7;;;;;;;23.98;46.08984;943.5969;;;;
2022/07/18 19:42:43;;;;;;;2.2;1.8;;;;;;;23.95;45.55664;943.6215;;;;
2022/07/18 19:45:18;;;;;;;3.4;1.7;;;;;;;23.91;45.3291;943.6536;;;;
2022/07/18 19:47:49;;;;;;;2.1;1.6;;;;;;;23.88;44.96094;943.7141;;;;
2022/07/18 19:50:18;;;;;;;2.7;1.5;;;;;;;23.82;45.41406;943.741;;;;
2022/07/18 19:52:44;;;;;;;3.6;1.8;;;;;;;23.79;47.10547;943.7151;;;;
2022/07/18 19:55:09;;;;;;;1.6;1.5;;;;;;;23.76;45.90137;943.7422;;;;
2022/07/18 19:57:34;;;;;;;2;1.8;;;;;;;23.75;45.85449;943.7489;;;;
2022/07/18 20:00:01;;;;;;;4.9;1.7;;;;;;;23.61;46.65137;943.7467;;;;
2022/07/18 20:02:26;;;;;;;2.5;1.8;;;;;;;23.55;46.63281;943.772;;;;
2022/07/18 20:04:56;;;;;;;2.1;1.6;;;;;;;23.52;47.22949;943.7584;;;;
2022/07/18 20:07:21;;;;;;;2.6;2.1;;;;;;;23.38;49.35352;943.7958;;;;
2022/07/18 20:09:48;;;;;;;3.7;2.4;;;;;;;22.99;49.69824;943.8517;;;;
2022/07/18 20:12:13;;;;;;;3.1;2.1;;;;;;;22.97;49.53223;943.863;;;;
2022/07/18 20:14:41;;;;;;;3.1;2.1;;;;;;;22.79;51.39063;943.9228;;;;
2022/07/18 20:17:08;;;;;;;2.8;1.8;;;;;;;22.68;50.05176;943.952;;;;
2022/07/18 20:19:33;;;;;;;2.9;2;;;;;;;22.6;50.21875;943.9132;;;;
2022/07/18 20:21:58;;;;;;;3.3;1.9;;;;;;;22.53;49.48242;943.9047;;;;
2022/07/18 20:24:23;;;;;;;3.4;1.5;;;;;;;22.5;49.48047;943.8438;;;;
2022/07/18 20:26:48;;;;;;;1.5;1.4;;;;;;;22.53;49.82422;943.8647;;;;
2022/07/18 20:29:16;;;;;;;1.9;1.8;;;;;;;22.53;49.97559;943.8722;;;;
2022/07/18 20:31:41;;;;;;;1.6;1.4;;;;;;;22.5;49.69141;943.8585;;;;
2022/07/18 20:34:06;;;;;;;3.4;1.9;;;;;;;22.53;48.67383;943.9387;;;;
2022/07/18 20:36:32;;;;;;;3.1;1.9;;;;;;;22.52;48.08691;943.9633;;;;
2022/07/18 20:39:01;;;;;;;2.9;1.8;;;;;;;22.44;48.93457;943.9637;;;;
2022/07/18 20:41:27;;;;;;;4.5;2.1;;;;;;;22.34;51.58496;943.9722;;;;
2022/07/18 20:43:48;;;;;;;4.7;2.4;;;;;;;22.31;51.86328;944.0076;;;;
2022/07/18 20:46:17;;;;;;;3;2.2;;;;;;;22.3;50.75977;944.016;;;;
2022/07/18 20:48:42;;;;;;;3.5;2;;;;;;;22.32;50.11621;943.9904;;;;
2022/07/18 20:51:09;;;;;;;1.8;1.5;;;;;;;22.22;49.90723;944.0178;;;;
2022/07/18 20:53:34;;;;;;;1.8;1.6;;;;;;;22.03;49.32227;943.9803;;;;
2022/07/18 20:56:01;;;;;;;2.8;1.7;;;;;;;21.91;49.32031;943.9239;;;;
2022/07/18 20:58:26;;;;;;;2.2;1.5;;;;;;;21.82;51.05664;943.9545;;;;
2022/07/18 21:00:53;;;;;;;3;2;;;;;;;21.52;52.37988;943.9677;;;;
2022/07/18 21:03:18;;;;;;;2.2;2;;;;;;;21.48;52.29395;943.9459;;;;
2022/07/18 21:05:46;;;;;;;3.6;1.9;;;;;;;21.49;53.07813;943.9344;;;;
2022/07/18 21:08:11;;;;;;;3;2.4;;;;;;;21.48;52.12891;944.006;;;;
2022/07/18 21:10:38;;;;;;;6;2.1;;;;;;;21.45;49.94824;944.0075;;;;
2022/07/18 21:13:03;;;;;;;2.4;1.8;;;;;;;21.47;49.93848;944.024;;;;
2022/07/18 21:15:40;;;;;;;1.9;1.7;;;;;;;21.46;50.41797;944.0137;;;;
2022/07/18 21:18:06;;;;;;;2.7;1.9;;;;;;;21.49;50.67871;944.0293;;;;
2022/07/18 21:20:36;;;;;;;1.7;1.6;;;;;;;21.57;50.76953;944.0242;;;;
2022/07/18 21:23:06;;;;;;;2.5;1.9;;;;;;;21.59;50.6543;944.0544;;;;
2022/07/18 21:25:36;;;;;;;2.1;1.9;;;;;;;21.53;51.47949;944.0446;;;;
2022/07/18 21:28:01;;;;;;;2.9;1.7;;;;;;;21.46;51.21387;944.0008;;;;
2022/07/18 21:30:28;;;;;;;2;1.8;;;;;;;21.42;51.16211;944.0428;;;;
2022/07/18 21:32:54;;;;;;;2;1.8;;;;;;;21.35;51.45996;944.0045;;;;
2022/07/18 21:35:21;;;;;;;3.1;1.9;;;;;;;21.31;52.13184;943.9553;;;;
2022/07/18 21:37:47;;;;;;;2;1.8;;;;;;;21.27;52.43066;944.0447;;;;
2022/07/18 21:40:16;;;;;;;2;1.8;;;;;;;21.17;52.31445;944.0001;;;;
2022/07/18 21:42:48;;;;;;;1.6;1.5;;;;;;;21.05;52.65234;943.9896;;;;
2022/07/18 21:45:19;;;;;;;1.9;1.7;;;;;;;20.87;52.91016;943.9576;;;;
2022/07/18 21:47:49;;;;;;;2.3;1.7;;;;;;;20.82;53.2207;943.9373;;;;